Sweden, Pennsylvania
Current Conditions -  °F | °C
As of 5:56 AM on Thursday 23 Oct 2014 (Local Time) from KELZ Reporting Station
Overcast Overcast  
Wind Chill: 32°   Ceiling: 700
Heat Index: 41°   Visibility: 10mi
Dew Point: 38°   Wind: 17mph
Humidity: 89%   Direction: 340°NNW
Pressure: 30.07"   Gusts: 23mph
Location:  41.7605°N, 77.9728°W
Report Text: KELZ 230956Z AUTO 34015G20KT 10SM OVC007 05/03 A3007 RMK AO2 CIG 005V010 SLP195 T00500033
Loading
Personal Weather Stations






























Interactive Weather Map
Tropical Storm Tracking
New forecast layout! Learn more

10-Day Weather Forecast

Advertisements
Track Severe Weather on mobile